Time;durP1;ratioP1;P1;durP2;ratioP2;P2;SDS_P1;SDS_P2;PMS_P1;PMS_P2;Temp;Humidity;BMP_temperature;BMP_pressure;BME280_temperature;BME280_humidity;BME280_pressure;Samples;Min_cycle;Max_cycle;Signal;HPM_P1;HPM_P2
2021/12/09 00:01:51;;;;;;;12.18;7.07;;;;;;;1.31;100.00;100176.28;5047884;28;20052;-77
2021/12/09 00:04:27;;;;;;;;;;;;;;;1.32;100.00;100181.53;5040227;28;20414;-78
2021/12/09 00:06:58;;;;;;;10.52;6.40;;;;;;;1.32;100.00;100181.53;5043038;28;19920;-78
2021/12/09 00:09:27;;;;;;;18.15;7.30;;;;;;;1.32;100.00;100176.31;5061742;28;20040;-78
2021/12/09 00:11:56;;;;;;;15.80;7.30;;;;;;;1.32;100.00;100170.22;5065817;28;20041;-77
2021/12/09 00:14:31;;;;;;;11.63;6.53;;;;;;;1.30;100.00;100169.31;5038671;28;20064;-78
2021/12/09 00:17:05;;;;;;;13.82;6.60;;;;;;;1.29;100.00;100175.34;5044785;28;20044;-77
2021/12/09 00:19:35;;;;;;;10.93;7.38;;;;;;;1.26;100.00;100173.53;5048391;28;20056;-78
2021/12/09 00:22:05;;;;;;;15.90;6.78;;;;;;;1.25;100.00;100178.66;5048674;28;20048;-77
2021/12/09 00:24:34;;;;;;;12.45;6.20;;;;;;;1.23;100.00;100178.66;5057974;28;20261;-78
2021/12/09 00:27:04;;;;;;;10.90;6.40;;;;;;;1.24;100.00;100182.13;5038776;28;20048;-79
2021/12/09 00:29:32;;;;;;;18.10;7.28;;;;;;;1.19;100.00;100184.53;5014235;28;20045;-78
2021/12/09 00:32:01;;;;;;;11.40;6.65;;;;;;;1.19;100.00;100187.16;5045594;28;20069;-77
2021/12/09 00:34:35;;;;;;;8.48;6.32;;;;;;;1.19;100.00;100181.09;5053184;28;20070;-78
2021/12/09 00:37:20;;;;;;;12.80;6.93;;;;;;;1.19;100.00;100181.09;5040295;28;20049;-78
2021/12/09 00:39:49;;;;;;;12.23;6.90;;;;;;;1.19;100.00;100197.53;5064387;28;20180;-79
2021/12/09 00:42:20;;;;;;;12.25;6.90;;;;;;;1.17;100.00;100194.91;5051272;28;20052;-78
2021/12/09 00:44:50;;;;;;;9.77;6.32;;;;;;;1.16;100.00;100195.72;5071742;28;20048;-79
2021/12/09 00:47:19;;;;;;;16.80;6.95;;;;;;;1.17;100.00;100194.00;5051513;28;20052;-79
2021/12/09 00:49:55;;;;;;;12.73;6.63;;;;;;;1.16;100.00;100203.50;5065842;28;20048;-77
2021/12/09 00:52:27;;;;;;;12.80;7.00;;;;;;;1.15;100.00;100200.88;5045901;28;20489;-78
2021/12/09 00:54:57;;;;;;;13.02;7.88;;;;;;;1.14;100.00;100206.91;5048072;28;20056;-77
2021/12/09 00:57:26;;;;;;;9.80;6.55;;;;;;;1.11;100.00;100202.47;5041613;28;20048;-78
2021/12/09 00:59:54;;;;;;;11.38;6.88;;;;;;;1.09;100.00;100205.88;5020242;28;20486;-78
2021/12/09 01:02:23;;;;;;;11.32;7.43;;;;;;;1.10;100.00;100210.25;5077905;28;20052;-78
2021/12/09 01:04:52;;;;;;;14.67;6.63;;;;;;;1.07;100.00;100211.00;5040412;28;20147;-80
2021/12/09 01:07:21;;;;;;;15.57;7.00;;;;;;;1.07;100.00;100221.38;5038073;28;20060;-78
2021/12/09 01:09:49;;;;;;;12.30;7.25;;;;;;;1.04;100.00;100210.94;5045686;28;20049;-78
2021/12/09 01:12:18;;;;;;;11.25;7.05;;;;;;;1.03;100.00;100208.28;5046269;28;20060;-78
2021/12/09 01:14:46;;;;;;;14.38;7.38;;;;;;;1.01;100.00;100204.75;5022764;28;20533;-78
2021/12/09 01:17:15;;;;;;;14.32;8.05;;;;;;;1.00;100.00;100203.00;5049028;28;20049;-78
2021/12/09 01:19:46;;;;;;;16.25;7.50;;;;;;;0.98;100.00;100200.34;5037940;28;20532;-78
2021/12/09 01:22:15;;;;;;;12.85;7.20;;;;;;;0.96;100.00;100202.00;5043668;28;20037;-78
2021/12/09 01:24:43;;;;;;;15.02;7.35;;;;;;;0.94;100.00;100198.50;5079337;28;20057;-78
2021/12/09 01:27:12;;;;;;;15.13;7.70;;;;;;;0.91;100.00;100201.88;5056234;28;20044;-78
2021/12/09 01:29:50;;;;;;;12.23;7.93;;;;;;;0.92;100.00;100203.63;5041400;28;20257;-76
2021/12/09 01:32:25;;;;;;;17.73;7.32;;;;;;;0.91;100.00;100208.78;5048486;28;20049;-77
2021/12/09 01:34:54;;;;;;;10.55;7.13;;;;;;;0.89;100.00;100203.53;5045328;28;20047;-77
2021/12/09 01:37:22;;;;;;;16.83;8.00;;;;;;;0.88;100.00;100208.69;5040514;28;20060;-78
2021/12/09 01:39:50;;;;;;;15.63;7.55;;;;;;;0.87;100.00;100201.72;5066036;28;20036;-78
2021/12/09 01:42:20;;;;;;;14.25;8.15;;;;;;;0.85;100.00;100193.91;5022119;28;20499;-78
2021/12/09 01:44:50;;;;;;;14.85;7.68;;;;;;;0.82;100.00;100198.13;5031134;28;20076;-78
2021/12/09 01:47:19;;;;;;;13.27;7.90;;;;;;;0.80;100.00;100211.03;5040711;28;20076;-79
2021/12/09 01:49:49;;;;;;;16.02;7.95;;;;;;;0.78;100.00;100213.56;5065089;28;20049;-78
2021/12/09 01:52:17;;;;;;;11.73;7.95;;;;;;;0.76;100.00;100204.84;5053270;28;20032;-77
2021/12/09 01:54:46;;;;;;;18.33;7.85;;;;;;;0.76;100.00;100215.22;5060828;28;20037;-78
2021/12/09 01:57:14;;;;;;;11.90;8.35;;;;;;;0.76;100.00;100207.44;5061287;28;20045;-77
2021/12/09 01:59:42;;;;;;;13.70;8.48;;;;;;;0.75;100.00;100213.44;5055940;28;20073;-76
2021/12/09 02:02:11;;;;;;;13.98;7.72;;;;;;;0.74;100.00;100216.91;5022800;28;20056;-78
2021/12/09 02:04:40;;;;;;;10.93;8.07;;;;;;;0.72;100.00;100218.56;5079557;28;20052;-78
2021/12/09 02:07:10;;;;;;;18.02;8.75;;;;;;;0.70;100.00;100225.41;5037553;28;20036;-78
2021/12/09 02:09:38;;;;;;;15.98;9.40;;;;;;;0.68;100.00;100221.88;5059325;28;20048;-77
2021/12/09 02:12:08;;;;;;;12.70;8.60;;;;;;;0.67;100.00;100214.94;5083548;28;20041;-77
2021/12/09 02:14:41;;;;;;;15.48;8.93;;;;;;;0.65;100.00;100201.03;5050733;28;20060;-78
2021/12/09 02:17:13;;;;;;;17.20;8.57;;;;;;;0.63;100.00;100207.88;5019256;28;20045;-78
2021/12/09 02:19:43;;;;;;;17.25;8.75;;;;;;;0.61;100.00;100204.38;5047776;28;20221;-78
2021/12/09 02:22:14;;;;;;;14.52;9.02;;;;;;;0.59;100.00;100211.22;5065294;28;20036;-78
2021/12/09 02:24:43;;;;;;;15.27;8.68;;;;;;;0.56;100.00;100209.38;5075553;28;20453;-78
2021/12/09 02:27:11;;;;;;;17.15;9.13;;;;;;;0.56;100.00;100205.91;5049868;28;20067;-78
2021/12/09 02:29:41;;;;;;;17.17;8.80;;;;;;;0.54;100.00;100218.81;5028137;28;20283;-78
2021/12/09 02:32:09;;;;;;;12.95;8.45;;;;;;;0.53;100.00;100210.97;5038542;28;20111;-78
2021/12/09 02:34:38;;;;;;;12.57;8.38;;;;;;;0.52;100.00;100215.28;5059996;28;20041;-78
2021/12/09 02:37:09;;;;;;;14.52;9.02;;;;;;;0.51;100.00;100221.31;5036554;28;20044;-78
2021/12/09 02:39:38;;;;;;;20.75;9.60;;;;;;;0.50;100.00;100222.13;5059620;28;20394;-78
2021/12/09 02:42:07;;;;;;;14.43;9.52;;;;;;;0.48;100.00;100218.63;5041370;28;20322;-76
2021/12/09 02:44:35;;;;;;;19.63;9.70;;;;;;;0.47;100.00;100227.22;5044023;28;20037;-78
2021/12/09 02:47:04;;;;;;;13.80;9.18;;;;;;;0.44;100.00;100223.66;5012332;28;24131;-77
2021/12/09 02:49:33;;;;;;;19.52;10.02;;;;;;;0.44;100.00;100221.06;5062486;28;20517;-78
2021/12/09 02:52:03;;;;;;;19.00;10.07;;;;;;;0.41;100.00;100220.97;5028589;28;20186;-78
2021/12/09 02:54:32;;;;;;;;;;;;;;;0.39;100.00;100229.53;5044931;28;20072;-78
2021/12/09 02:57:05;;;;;;;17.50;9.40;;;;;;;0.40;100.00;100227.84;5040914;28;20070;-77
2021/12/09 02:59:34;;;;;;;15.73;9.55;;;;;;;0.41;100.00;100223.56;5052423;28;20505;-78
2021/12/09 03:02:05;;;;;;;17.52;11.23;;;;;;;0.42;100.00;100220.09;5021922;28;20083;-78
2021/12/09 03:04:41;;;;;;;17.40;10.50;;;;;;;0.41;100.00;100220.97;5057249;28;20049;-79
2021/12/09 03:07:18;;;;;;;22.90;11.55;;;;;;;0.39;100.00;100210.53;5054333;28;20080;-77
2021/12/09 03:09:52;;;;;;;16.48;10.65;;;;;;;0.37;100.00;100215.66;5049823;28;20506;-79
2021/12/09 03:12:30;;;;;;;19.58;11.57;;;;;;;0.38;100.00;100216.56;5066212;28;20033;-77
2021/12/09 03:15:00;;;;;;;18.92;10.45;;;;;;;0.37;100.00;100218.25;5055420;28;20045;-78
2021/12/09 03:17:29;;;;;;;23.52;11.05;;;;;;;0.36;100.00;100218.22;5041990;28;20064;-78
2021/12/09 03:19:57;;;;;;;18.90;10.70;;;;;;;0.35;100.00;100212.13;5033136;28;20413;-77
2021/12/09 03:22:25;;;;;;;20.00;11.55;;;;;;;0.37;100.00;100222.56;5050895;28;20056;-77
2021/12/09 03:24:54;;;;;;;17.02;11.10;;;;;;;0.37;100.00;100219.97;5018994;28;20053;-78
2021/12/09 03:27:22;;;;;;;19.10;12.05;;;;;;;0.36;100.00;100237.22;5024864;28;20040;-77
2021/12/09 03:29:51;;;;;;;17.60;12.00;;;;;;;0.36;100.00;100226.88;5059740;28;20325;-77
2021/12/09 03:32:22;;;;;;;19.23;12.05;;;;;;;0.37;100.00;100230.34;5065692;28;20043;-77
2021/12/09 03:34:51;;;;;;;18.13;11.13;;;;;;;0.38;100.00;100232.13;5036059;28;20032;-78
2021/12/09 03:37:27;;;;;;;17.33;11.30;;;;;;;0.37;100.00;100236.38;5052383;28;20045;-76
2021/12/09 03:39:58;;;;;;;18.65;12.18;;;;;;;0.37;100.00;100233.78;5028959;28;20270;-77
2021/12/09 03:42:30;;;;;;;18.98;12.25;;;;;;;0.38;100.00;100232.13;5056657;28;20044;-77
2021/12/09 03:44:59;;;;;;;22.38;12.45;;;;;;;0.37;100.00;100240.69;5057253;28;20275;-77
2021/12/09 03:47:29;;;;;;;20.85;11.90;;;;;;;0.36;100.00;100236.38;5056242;28;20044;-79
2021/12/09 03:49:59;;;;;;;;;;;;;;;0.37;100.00;100246.75;5017085;28;20592;-77
2021/12/09 03:52:28;;;;;;;17.83;12.07;;;;;;;0.37;100.00;100240.69;5048366;28;19928;-79
2021/12/09 03:54:57;;;;;;;17.95;11.30;;;;;;;0.37;100.00;100251.94;5050599;28;20560;-77
2021/12/09 03:57:26;;;;;;;21.92;11.40;;;;;;;0.36;100.00;100255.38;5039220;28;20044;-76
2021/12/09 03:59:54;;;;;;;18.13;12.13;;;;;;;0.37;100.00;100245.88;5023703;28;20053;-77
2021/12/09 04:02:26;;;;;;;18.42;11.80;;;;;;;0.36;100.00;100252.78;5047496;28;20049;-78
2021/12/09 04:04:55;;;;;;;20.35;12.05;;;;;;;0.36;100.00;100257.97;5025243;28;20049;-77
2021/12/09 04:07:23;;;;;;;19.33;11.90;;;;;;;0.36;100.00;100242.41;5042576;28;20029;-78
2021/12/09 04:09:51;;;;;;;18.42;12.18;;;;;;;0.37;100.00;100257.13;5039448;28;20534;-78
2021/12/09 04:12:20;;;;;;;20.15;12.23;;;;;;;0.37;100.00;100251.06;5040334;28;20037;-79
2021/12/09 04:14:49;;;;;;;20.85;13.38;;;;;;;0.37;100.00;100245.88;5043758;28;20049;-78
2021/12/09 04:17:18;;;;;;;20.63;12.13;;;;;;;0.37;100.00;100246.75;5030243;28;20417;-78
2021/12/09 04:19:47;;;;;;;21.83;12.57;;;;;;;0.37;100.00;100246.75;5058670;28;20056;-80
2021/12/09 04:22:18;;;;;;;20.63;12.32;;;;;;;0.38;100.00;100258.03;5058506;28;20072;-77
2021/12/09 04:24:49;;;;;;;20.88;12.93;;;;;;;0.37;100.00;100259.72;5040791;28;20420;-78
2021/12/09 04:27:19;;;;;;;16.77;12.13;;;;;;;0.37;100.00;100257.13;5026410;28;20033;-78
2021/12/09 04:29:48;;;;;;;18.45;12.15;;;;;;;0.36;100.00;100259.69;5031884;28;20029;-79
2021/12/09 04:32:16;;;;;;;20.33;11.65;;;;;;;0.35;100.00;100257.91;5045421;28;20040;-78
2021/12/09 04:34:45;;;;;;;18.40;12.73;;;;;;;0.34;100.00;100259.63;5052852;28;20056;-78
2021/12/09 04:37:14;;;;;;;20.55;12.48;;;;;;;0.33;100.00;100255.25;5019087;28;20514;-78
2021/12/09 04:39:43;;;;;;;20.35;12.68;;;;;;;0.30;100.00;100255.19;5032517;28;20510;-78
2021/12/09 04:42:11;;;;;;;26.77;13.95;;;;;;;0.30;100.00;100250.00;5058602;28;20047;-77
2021/12/09 04:44:40;;;;;;;21.13;12.38;;;;;;;0.30;100.00;100243.91;5037445;28;20053;-78
2021/12/09 04:47:09;;;;;;;23.00;13.30;;;;;;;0.31;100.00;100251.75;5058997;28;20037;-78
2021/12/09 04:49:38;;;;;;;15.45;12.40;;;;;;;0.33;100.00;100250.06;5056561;28;20372;-78
2021/12/09 04:52:07;;;;;;;22.92;13.77;;;;;;;0.33;100.00;100251.78;5031459;28;20517;-78
2021/12/09 04:54:37;;;;;;;18.50;12.60;;;;;;;0.34;100.00;100257.03;5069506;28;20048;-78
2021/12/09 04:57:06;;;;;;;25.00;12.85;;;;;;;0.35;100.00;100253.59;5050988;28;20036;-77
2021/12/09 04:59:35;;;;;;;13.13;9.63;;;;;;;0.35;100.00;100242.38;5028588;28;20068;-78
2021/12/09 05:02:09;;;;;;;24.40;14.18;;;;;;;0.36;100.00;100244.13;5065676;28;20430;-78
2021/12/09 05:04:38;;;;;;;22.33;13.45;;;;;;;0.35;100.00;100240.66;5049647;28;20154;-78
2021/12/09 05:07:08;;;;;;;21.25;12.65;;;;;;;0.34;100.00;100235.41;5036609;28;20075;-79
2021/12/09 05:09:39;;;;;;;20.73;12.75;;;;;;;0.33;100.00;100234.53;5050862;28;20533;-79
2021/12/09 05:12:08;;;;;;;21.30;12.25;;;;;;;0.32;100.00;100237.97;5064759;28;20045;-79
2021/12/09 05:14:37;;;;;;;19.83;14.10;;;;;;;0.32;100.00;100237.97;5053781;28;20060;-79
2021/12/09 05:17:05;;;;;;;27.20;13.30;;;;;;;0.32;100.00;100235.38;5064606;28;20256;-78
2021/12/09 05:19:33;;;;;;;24.33;13.05;;;;;;;0.33;100.00;100239.72;5039623;28;20045;-78
2021/12/09 05:22:03;;;;;;;22.67;13.95;;;;;;;0.34;100.00;100243.19;5007586;28;20143;-77
2021/12/09 05:24:34;;;;;;;23.55;13.63;;;;;;;0.33;100.00;100249.22;5053920;28;20029;-78
2021/12/09 05:27:03;;;;;;;22.60;13.35;;;;;;;0.32;100.00;100252.59;5052477;28;20618;-78
2021/12/09 05:29:40;;;;;;;20.10;13.07;;;;;;;0.31;100.00;100262.09;5047071;28;20388;-79
2021/12/09 05:32:11;;;;;;;24.65;12.90;;;;;;;0.29;100.00;100268.94;5067029;28;20056;-78
2021/12/09 05:34:46;;;;;;;23.85;14.18;;;;;;;0.29;100.00;100271.53;5063172;28;20052;-78
2021/12/09 05:37:22;;;;;;;22.70;14.55;;;;;;;0.30;100.00;100265.53;5025426;28;20060;-78
2021/12/09 05:39:53;;;;;;;22.40;13.65;;;;;;;0.32;100.00;100268.16;5050589;28;20044;-79
2021/12/09 05:42:25;;;;;;;27.23;14.57;;;;;;;0.33;100.00;100259.56;5048383;28;20501;-78
2021/12/09 05:44:54;;;;;;;22.90;14.75;;;;;;;0.33;100.00;100265.63;5026399;28;20236;-78
2021/12/09 05:47:23;;;;;;;21.65;13.55;;;;;;;0.34;100.00;100257.03;5022657;28;20040;-77
2021/12/09 05:49:53;;;;;;;16.95;13.88;;;;;;;0.35;100.00;100257.91;5053942;28;20521;-78
2021/12/09 05:52:21;;;;;;;19.75;13.48;;;;;;;0.34;100.00;100267.41;5034557;28;20490;-78
2021/12/09 05:54:50;;;;;;;21.33;15.05;;;;;;;0.34;100.00;100272.59;5032276;28;20494;-77
2021/12/09 05:57:18;;;;;;;28.73;15.10;;;;;;;0.33;100.00;100268.22;5045345;28;20044;-79
2021/12/09 05:59:46;;;;;;;25.73;15.88;;;;;;;0.35;100.00;100263.09;5039888;28;20520;-78
2021/12/09 06:02:16;;;;;;;20.48;14.35;;;;;;;0.33;100.00;100263.03;5071902;28;20045;-78
2021/12/09 06:04:46;;;;;;;25.60;15.13;;;;;;;0.32;100.00;100266.47;5063907;28;20446;-78
2021/12/09 06:07:15;;;;;;;22.42;14.27;;;;;;;0.30;100.00;100270.72;5067207;28;20478;-78
2021/12/09 06:09:43;;;;;;;26.20;15.35;;;;;;;0.30;100.00;100278.50;5049329;28;20052;-78
2021/12/09 06:12:12;;;;;;;22.55;13.98;;;;;;;0.28;100.00;100277.53;5082792;28;20052;-77
2021/12/09 06:14:40;;;;;;;31.05;15.80;;;;;;;0.28;100.00;100272.34;5051698;28;20033;-79
2021/12/09 06:17:09;;;;;;;24.50;13.60;;;;;;;0.27;100.00;100269.72;5035890;28;20053;-78
2021/12/09 06:19:37;;;;;;;27.30;14.93;;;;;;;0.26;100.00;100273.13;5064445;28;20048;-78
2021/12/09 06:22:06;;;;;;;23.95;14.23;;;;;;;0.25;100.00;100272.25;5057362;28;20441;-79
2021/12/09 06:24:34;;;;;;;22.77;14.93;;;;;;;0.25;100.00;100277.44;5034985;28;20055;-77
2021/12/09 06:27:06;;;;;;;30.08;16.85;;;;;;;0.26;100.00;100273.13;5034039;28;20568;-78
2021/12/09 06:29:34;;;;;;;30.45;15.13;;;;;;;0.24;100.00;100275.66;5059487;28;20051;-78
2021/12/09 06:32:03;;;;;;;26.90;16.27;;;;;;;0.25;100.00;100274.84;5046567;28;20061;-78
2021/12/09 06:34:33;;;;;;;31.35;17.42;;;;;;;0.24;100.00;100275.66;5041500;28;20037;-79
2021/12/09 06:37:07;;;;;;;22.45;15.68;;;;;;;0.24;100.00;100285.16;5057668;28;20059;-78
2021/12/09 06:39:36;;;;;;;32.80;17.35;;;;;;;0.23;100.00;100289.47;5010620;28;20048;-79
2021/12/09 06:42:05;;;;;;;30.92;16.92;;;;;;;0.23;100.00;100291.16;5048281;28;20396;-78
2021/12/09 06:44:34;;;;;;;23.17;14.93;;;;;;;0.22;100.00;100287.69;5042864;28;20048;-79
2021/12/09 06:47:03;;;;;;;23.48;14.98;;;;;;;0.19;100.00;100288.47;5047978;28;20277;-78
2021/12/09 06:49:31;;;;;;;31.75;15.85;;;;;;;0.19;100.00;100290.19;5049200;28;20041;-78
2021/12/09 06:52:03;;;;;;;34.20;18.30;;;;;;;0.17;100.00;100291.81;5047957;28;20060;-79
2021/12/09 06:54:32;;;;;;;22.88;15.68;;;;;;;0.16;100.00;100290.06;5050597;28;20051;-78
2021/12/09 06:57:01;;;;;;;23.33;16.15;;;;;;;0.14;100.00;100302.09;5049066;28;20071;-79
2021/12/09 06:59:29;;;;;;;23.92;15.88;;;;;;;0.14;100.00;100317.63;5031669;28;20051;-77
2021/12/09 07:01:58;;;;;;;23.95;15.35;;;;;;;0.14;100.00;100312.44;5037274;28;20517;-78
2021/12/09 07:04:27;;;;;;;30.83;16.15;;;;;;;0.14;100.00;100317.63;5059865;28;20052;-77
2021/12/09 07:06:55;;;;;;;25.30;15.65;;;;;;;0.13;100.00;100314.16;5047837;28;20051;-81
2021/12/09 07:09:28;;;;;;;27.85;15.98;;;;;;;0.12;100.00;100311.50;5042770;28;20455;-77
2021/12/09 07:11:58;;;;;;;25.80;17.17;;;;;;;0.10;100.00;100316.63;5033775;28;20048;-78
2021/12/09 07:14:26;;;;;;;26.08;16.25;;;;;;;0.11;100.00;100333.06;5043716;28;20052;-78
2021/12/09 07:17:00;;;;;;;27.08;17.25;;;;;;;0.11;100.00;100331.34;5039959;28;20044;-78
2021/12/09 07:19:29;;;;;;;24.75;15.32;;;;;;;0.11;100.00;100320.97;5035076;28;20053;-78
2021/12/09 07:21:57;;;;;;;28.00;17.42;;;;;;;0.11;100.00;100323.56;5045032;28;20055;-78
2021/12/09 07:24:26;;;;;;;28.58;16.67;;;;;;;0.12;100.00;100321.88;5062629;28;20235;-78
2021/12/09 07:26:54;;;;;;;31.55;16.85;;;;;;;0.10;100.00;100329.59;5017526;28;20052;-78
2021/12/09 07:29:24;;;;;;;30.05;17.85;;;;;;;0.09;100.00;100333.00;5028758;28;20213;-78
2021/12/09 07:31:53;;;;;;;34.27;16.10;;;;;;;0.10;100.00;100326.13;5044186;28;20045;-80
2021/12/09 07:34:22;;;;;;;31.70;16.33;;;;;;;0.11;100.00;100327.88;5043660;28;20323;-80
2021/12/09 07:36:50;;;;;;;27.60;18.17;;;;;;;0.13;100.00;100334.00;5059022;28;20048;-78
2021/12/09 07:39:19;;;;;;;32.63;17.63;;;;;;;0.13;100.00;100334.00;5025659;28;20056;-78
2021/12/09 07:41:47;;;;;;;33.75;17.65;;;;;;;0.12;100.00;100332.25;5061325;28;20053;-79
2021/12/09 07:44:18;;;;;;;31.15;16.65;;;;;;;0.13;100.00;100331.41;5039446;28;20569;-77
2021/12/09 07:46:48;;;;;;;28.08;16.70;;;;;;;0.12;100.00;100327.06;5038328;28;20395;-79
2021/12/09 07:49:17;;;;;;;30.30;17.95;;;;;;;0.11;100.00;100341.69;5037219;28;20111;-78
2021/12/09 07:51:46;;;;;;;24.27;15.88;;;;;;;0.11;100.00;100346.00;5013008;28;20049;-78
2021/12/09 07:54:15;;;;;;;32.83;18.42;;;;;;;0.10;100.00;100354.63;5029954;28;20427;-78
2021/12/09 07:56:45;;;;;;;30.30;17.98;;;;;;;0.09;100.00;100356.31;5047790;28;20502;-79
2021/12/09 07:59:13;;;;;;;29.25;17.83;;;;;;;0.10;100.00;100354.63;4990834;28;20187;-78
2021/12/09 08:01:44;;;;;;;34.20;17.45;;;;;;;0.10;100.00;100347.72;5013639;28;20052;-77
2021/12/09 08:04:13;;;;;;;31.75;17.48;;;;;;;0.13;100.00;100349.53;5036264;28;20041;-79
2021/12/09 08:06:43;;;;;;;30.10;17.13;;;;;;;0.12;100.00;100352.97;5053262;28;20033;-78
2021/12/09 08:09:11;;;;;;;34.83;19.63;;;;;;;0.13;100.00;100357.31;5021949;28;20049;-79
2021/12/09 08:11:41;;;;;;;26.63;19.17;;;;;;;0.14;100.00;100356.50;5038444;28;20045;-77
2021/12/09 08:14:11;;;;;;;25.08;16.98;;;;;;;0.13;100.00;100350.44;5043677;28;20052;-78
2021/12/09 08:16:40;;;;;;;32.67;18.15;;;;;;;0.14;100.00;100346.13;5066149;28;20490;-78
2021/12/09 08:19:10;;;;;;;33.92;18.10;;;;;;;0.14;100.00;100351.31;5035752;28;20048;-79
2021/12/09 08:21:40;;;;;;;25.20;16.65;;;;;;;0.14;100.00;100351.31;5066111;28;20115;-79
2021/12/09 08:24:11;;;;;;;26.08;15.93;;;;;;;0.14;100.00;100346.13;5016932;28;20329;-78
2021/12/09 08:26:39;;;;;;;28.13;17.50;;;;;;;0.14;100.00;100344.41;5044548;28;20045;-78
2021/12/09 08:29:08;;;;;;;32.88;17.52;;;;;;;0.15;100.00;100347.88;5011132;28;20057;-79
2021/12/09 08:31:37;;;;;;;26.60;16.48;;;;;;;0.16;100.00;100354.84;5052585;28;20044;-79
2021/12/09 08:34:16;;;;;;;34.08;17.90;;;;;;;0.16;100.00;100352.25;5025207;28;20370;-79
2021/12/09 08:36:54;;;;;;;26.95;16.75;;;;;;;0.16;100.00;100349.66;5044305;28;20036;-78
2021/12/09 08:39:22;;;;;;;31.52;17.50;;;;;;;0.17;100.00;100354.00;5047693;28;20055;-79
2021/12/09 08:41:51;;;;;;;30.80;17.33;;;;;;;0.16;100.00;100350.53;5046803;28;20036;-78
2021/12/09 08:44:19;;;;;;;24.55;16.88;;;;;;;0.16;100.00;100360.03;5023041;28;20028;-78
2021/12/09 08:46:48;;;;;;;31.88;17.05;;;;;;;0.17;100.00;100356.59;5065416;28;20343;-77
2021/12/09 08:49:17;;;;;;;33.88;17.77;;;;;;;0.18;100.00;100354.06;5064769;28;20045;-78
2021/12/09 08:51:46;;;;;;;26.15;18.13;;;;;;;0.19;100.00;100353.25;5057892;28;20146;-79
2021/12/09 08:54:15;;;;;;;24.13;16.42;;;;;;;0.22;100.00;100349.88;5053153;28;20036;-79
2021/12/09 08:56:50;;;;;;;29.23;16.63;;;;;;;0.25;100.00;100356.91;5065843;28;20708;-79
2021/12/09 08:59:21;;;;;;;29.88;17.50;;;;;;;0.27;100.00;100361.31;5062572;28;20035;-77
2021/12/09 09:02:07;;;;;;;33.63;15.13;;;;;;;0.32;100.00;100366.66;5024138;28;20055;-78
2021/12/09 09:04:36;;;;;;;28.35;15.63;;;;;;;0.34;100.00;100365.00;5035382;28;20081;-78
2021/12/09 09:07:07;;;;;;;30.05;16.42;;;;;;;0.37;100.00;100350.44;5066205;28;20048;-80
2021/12/09 09:09:37;;;;;;;28.50;17.20;;;;;;;0.41;100.00;100359.22;5053549;28;20532;-80
2021/12/09 09:12:10;;;;;;;31.35;16.13;;;;;;;0.46;100.00;100359.41;5067489;28;20044;-80
2021/12/09 09:14:42;;;;;;;29.00;16.55;;;;;;;0.49;100.00;100355.22;5056699;28;20304;-78
2021/12/09 09:17:10;;;;;;;26.92;14.95;;;;;;;0.53;100.00;100356.16;5043152;28;20048;-79
2021/12/09 09:19:39;;;;;;;26.67;14.60;;;;;;;0.58;100.00;100349.44;5042646;28;20544;-79
2021/12/09 09:22:08;;;;;;;33.22;16.25;;;;;;;0.62;100.00;100355.63;5045853;28;20033;-78
2021/12/09 09:24:37;;;;;;;26.98;15.85;;;;;;;0.65;100.00;100354.03;5057356;28;20045;-79
2021/12/09 09:27:05;;;;;;;22.25;13.73;;;;;;;0.69;100.00;100357.63;5047945;28;20040;-79
2021/12/09 09:29:37;;;;;;;27.92;14.68;;;;;;;0.73;100.00;100351.69;5059523;28;20609;-78
2021/12/09 09:32:07;;;;;;;28.73;14.65;;;;;;;0.76;100.00;100351.81;5048266;28;20056;-78
2021/12/09 09:34:35;;;;;;;29.60;16.77;;;;;;;0.78;100.00;100357.94;5026508;28;20274;-78
2021/12/09 09:37:04;;;;;;;29.02;13.27;;;;;;;0.83;100.00;100355.50;5061083;28;20055;-78
2021/12/09 09:39:33;;;;;;;23.10;13.40;;;;;;;0.85;100.00;100357.34;5055117;28;20045;-79
2021/12/09 09:44:54;;;;;;;20.45;13.68;;;;;;;0.94;100.00;100351.56;5059338;28;20165;-77
2021/12/09 09:47:26;;;;;;;20.25;12.77;;;;;;;0.98;100.00;100343.03;5027324;28;20525;-78
2021/12/09 09:49:56;;;;;;;22.00;12.02;;;;;;;1.02;100.00;100328.47;5052418;28;20053;-79
2021/12/09 09:52:25;;;;;;;24.63;13.25;;;;;;;1.06;100.00;100328.63;5051865;28;20525;-79
2021/12/09 09:54:55;;;;;;;21.40;12.23;;;;;;;1.09;100.00;100333.03;5039852;28;20068;-78
2021/12/09 09:57:25;;;;;;;23.23;12.82;;;;;;;1.13;100.00;100334.88;5046346;28;20033;-78
2021/12/09 09:59:54;;;;;;;27.08;13.07;;;;;;;1.15;100.00;100338.41;5061249;28;20044;-78
2021/12/09 10:02:22;;;;;;;19.52;11.90;;;;;;;1.16;100.00;100330.69;5052246;28;20537;-78
2021/12/09 10:05:00;;;;;;;22.05;11.75;;;;;;;1.21;100.00;100330.84;5040375;28;20048;-78
2021/12/09 10:07:30;;;;;;;18.00;12.27;;;;;;;1.24;100.00;100328.34;5043265;28;20049;-78
2021/12/09 10:10:00;;;;;;;25.30;12.82;;;;;;;1.28;100.00;100325.00;5047303;28;20049;-80
2021/12/09 10:12:29;;;;;;;22.63;13.77;;;;;;;1.33;100.00;100332.97;5031191;28;20824;-77
2021/12/09 10:14:57;;;;;;;22.80;12.88;;;;;;;1.38;100.00;100330.50;5065780;28;20052;-80
2021/12/09 10:17:27;;;;;;;19.67;12.80;;;;;;;1.43;100.00;100331.53;5060364;28;20029;-78
2021/12/09 10:20:10;;;;;;;25.65;12.00;;;;;;;1.47;100.00;100334.25;5024575;28;20364;-79
2021/12/09 10:22:38;;;;;;;21.58;11.60;;;;;;;1.52;100.00;100334.44;5048516;28;20537;-78
2021/12/09 10:25:19;;;;;;;21.05;11.68;;;;;;;1.58;100.00;100328.53;5037942;28;20049;-78
2021/12/09 10:28:00;;;;;;;;;;;;;;;1.58;100.00;100326.81;5049688;28;20055;-79
2021/12/09 10:30:36;;;;;;;15.68;10.32;;;;;;;1.62;100.00;100333.00;5030280;28;20504;-79
2021/12/09 10:33:05;;;;;;;20.52;11.10;;;;;;;1.65;100.00;100325.31;5030246;28;20501;-79
2021/12/09 10:35:40;;;;;;;17.73;13.05;;;;;;;1.67;100.00;100331.44;4999740;28;20269;-80
2021/12/09 10:38:11;;;;;;;27.08;11.02;;;;;;;1.69;100.00;100332.34;5065080;28;20036;-80
2021/12/09 10:40:40;;;;;;;18.88;10.70;;;;;;;1.70;100.00;100336.69;5037428;28;20040;-78
2021/12/09 10:43:17;;;;;;;22.67;10.57;;;;;;;1.72;100.00;100342.81;5027017;28;20037;-80
2021/12/09 10:45:47;;;;;;;22.10;10.50;;;;;;;1.73;100.00;100327.28;5021994;28;20052;-80
2021/12/09 10:56:09;;;;;;;17.08;10.07;;;;;;;1.80;100.00;100330.09;5067009;28;20053;-78
2021/12/09 10:58:43;;;;;;;17.90;10.00;;;;;;;1.81;100.00;100337.91;5063798;28;20036;-78
2021/12/09 11:01:17;;;;;;;16.83;10.25;;;;;;;1.82;100.00;100323.22;5053300;28;20036;-78
2021/12/09 11:03:50;;;;;;;16.00;9.18;;;;;;;1.84;100.00;100321.53;5050881;28;20409;-79
2021/12/09 11:06:29;;;;;;;18.85;11.23;;;;;;;1.84;100.00;100317.22;5036299;28;20053;-78
2021/12/09 11:09:02;;;;;;;19.17;9.95;;;;;;;1.84;100.00;100313.75;5040765;28;20044;-79
2021/12/09 11:11:32;;;;;;;23.30;10.02;;;;;;;1.84;100.00;100314.63;5056208;28;20051;-77
2021/12/09 11:14:03;;;;;;;17.92;9.73;;;;;;;1.86;100.00;100301.69;5047653;28;20402;-80
2021/12/09 11:16:39;;;;;;;23.05;9.98;;;;;;;1.91;100.00;100302.69;5031427;28;20426;-78
2021/12/09 11:19:25;;;;;;;16.70;9.80;;;;;;;1.94;100.00;100313.19;5055744;28;20051;-78
2021/12/09 11:22:00;;;;;;;17.30;9.98;;;;;;;1.99;100.00;100314.19;5049090;28;20045;-78
2021/12/09 11:24:35;;;;;;;19.92;9.07;;;;;;;2.04;100.00;100329.91;5039983;28;21399;-78
2021/12/09 11:27:07;;;;;;;14.40;9.13;;;;;;;2.02;100.00;100316.00;5072436;28;20048;-79
2021/12/09 11:29:47;;;;;;;18.85;9.68;;;;;;;2.02;100.00;100296.09;5060141;28;20514;-78
2021/12/09 11:32:52;;;;;;;14.85;8.38;;;;;;;2.03;100.00;100302.19;5031218;28;20041;-78
2021/12/09 11:35:26;;;;;;;15.68;9.27;;;;;;;2.04;100.00;100304.84;5043255;28;20060;-78
2021/12/09 11:38:19;;;;;;;15.82;9.23;;;;;;;2.08;100.00;100298.88;5020254;28;20021;-78